Time;durP1;ratioP1;P1;durP2;ratioP2;P2;SDS_P1;SDS_P2;PMS_P1;PMS_P2;Temp;Humidity;BMP_temperature;BMP_pressure;BME280_temperature;BME280_humidity;BME280_pressure;Samples;Min_cycle;Max_cycle;Signal;HPM_P1;HPM_P2
2022/01/19 03:28:48;;;;;;;14.73;10.27;;;5.70;1.00;;;;;;6250922;22;20197;-80
2022/01/19 03:32:01;;;;;;;15.20;11.00;;;5.70;1.00;;;;;;6300966;22;20198;-79
2022/01/19 03:46:04;;;;;;;14.05;10.90;;;5.70;1.00;;;;;;6257216;22;20320;-78
2022/01/19 04:04:53;;;;;;;20.42;13.00;;;5.70;1.00;;;;;;6395101;22;20201;-80
2022/01/19 04:19:27;;;;;;;19.75;11.18;;;5.70;1.00;;;;;;6265390;22;20203;-80
2022/01/19 04:22:36;;;;;;;14.00;10.02;;;5.70;1.00;;;;;;6140203;23;20210;-79
2022/01/19 04:25:56;;;;;;;16.30;11.98;;;5.70;1.00;;;;;;6286711;22;20282;-81
2022/01/19 04:29:08;;;;;;;21.13;10.80;;;5.70;1.00;;;;;;6203079;23;20190;-81
2022/01/19 04:35:44;;;;;;;17.20;9.75;;;5.60;1.00;;;;;;6327615;22;20189;-79
2022/01/19 05:08:54;;;;;;;14.30;11.60;;;5.60;1.00;;;;;;6366758;22;20183;-78
2022/01/19 05:18:13;;;;;;;15.50;11.60;;;5.40;1.00;;;;;;6169826;22;20552;-79
2022/01/19 05:20:47;;;;;;;15.48;12.77;;;5.50;1.00;;;;;;6241678;22;20212;-79
2022/01/19 05:23:17;;;;;;;16.02;12.45;;;5.50;1.00;;;;;;6238777;22;20253;-80
2022/01/19 05:25:44;;;;;;;18.52;13.80;;;5.60;1.00;;;;;;6411739;22;20193;-78
2022/01/19 05:28:15;;;;;;;18.52;12.63;;;5.70;1.00;;;;;;6434332;22;20206;-79
2022/01/19 05:30:42;;;;;;;18.90;11.23;;;5.70;1.00;;;;;;6434592;22;20161;-79
2022/01/19 05:33:13;;;;;;;16.58;11.13;;;5.70;1.00;;;;;;6405932;22;20189;-79
2022/01/19 05:35:41;;;;;;;17.70;13.85;;;5.70;1.00;;;;;;6435101;22;20166;-78
2022/01/19 05:38:34;;;;;;;16.20;11.10;;;5.70;1.00;;;;;;6433484;22;20185;-79
2022/01/19 05:41:26;;;;;;;21.55;12.45;;;5.70;1.00;;;;;;6433204;22;20198;-80
2022/01/19 05:43:55;;;;;;;15.32;10.90;;;5.70;1.00;;;;;;6433763;22;20190;-79
2022/01/19 05:46:22;;;;;;;11.63;10.38;;;5.60;1.00;;;;;;6434188;22;20185;-80
2022/01/19 05:48:50;;;;;;;21.75;12.52;;;5.70;1.00;;;;;;6433494;22;20174;-79
2022/01/19 05:51:17;;;;;;;18.70;12.68;;;5.60;1.00;;;;;;6431072;22;20177;-79
2022/01/19 05:53:44;;;;;;;18.00;12.65;;;5.60;1.00;;;;;;6406242;22;20256;-79
2022/01/19 05:56:11;;;;;;;17.58;12.18;;;5.70;1.00;;;;;;6435427;22;20182;-80
2022/01/19 05:58:37;;;;;;;20.05;12.95;;;5.60;1.00;;;;;;6433146;22;20180;-78
2022/01/19 06:01:04;;;;;;;17.00;11.80;;;5.70;1.00;;;;;;6432759;22;20372;-78
2022/01/19 06:03:30;;;;;;;20.10;13.13;;;5.70;1.00;;;;;;6433925;22;20336;-78
2022/01/19 06:05:59;;;;;;;16.42;12.80;;;5.70;1.00;;;;;;6433084;22;20649;-79
2022/01/19 06:08:42;;;;;;;16.48;12.02;;;5.70;1.00;;;;;;6431376;22;20314;-79
2022/01/19 06:11:08;;;;;;;19.23;11.80;;;5.80;1.00;;;;;;6431092;22;20298;-78
2022/01/19 06:13:35;;;;;;;16.40;12.02;;;5.70;1.00;;;;;;6433404;22;20189;-77
2022/01/19 06:16:02;;;;;;;17.08;12.20;;;5.70;1.00;;;;;;6403975;22;20186;-78
2022/01/19 06:18:29;;;;;;;19.70;13.27;;;5.60;1.00;;;;;;6431292;22;20180;-79
2022/01/19 06:20:56;;;;;;;16.38;12.65;;;5.50;1.00;;;;;;6429919;22;20199;-78
2022/01/19 06:23:24;;;;;;;17.17;11.95;;;5.50;1.00;;;;;;6431120;22;20165;-79
2022/01/19 06:25:51;;;;;;;21.00;14.00;;;5.50;1.00;;;;;;6414658;22;20196;-79
2022/01/19 06:28:18;;;;;;;18.40;13.90;;;5.60;1.00;;;;;;6427222;22;20222;-77
2022/01/19 06:30:44;;;;;;;18.45;12.85;;;5.60;1.00;;;;;;6427086;22;20204;-79
2022/01/19 06:33:11;;;;;;;16.58;12.73;;;5.60;1.00;;;;;;6429395;22;20201;-80
2022/01/19 06:35:38;;;;;;;19.75;13.02;;;5.50;1.00;;;;;;6432600;22;20193;-80
2022/01/19 06:38:10;;;;;;;18.83;13.93;;;5.40;1.00;;;;;;6432901;22;20169;-78
2022/01/19 06:40:38;;;;;;;19.08;14.35;;;5.40;1.00;;;;;;6433125;22;21483;-80
2022/01/19 06:43:08;;;;;;;20.05;13.95;;;5.30;1.00;;;;;;6423916;22;20189;-79
2022/01/19 06:45:35;;;;;;;20.38;13.82;;;5.30;1.00;;;;;;6428099;22;20166;-79
2022/01/19 06:48:02;;;;;;;25.83;14.48;;;5.30;1.00;;;;;;6429791;22;20491;-81
2022/01/19 06:50:31;;;;;;;21.33;13.95;;;5.40;1.00;;;;;;6422901;22;20231;-79
2022/01/19 06:52:59;;;;;;;20.10;12.90;;;5.40;1.00;;;;;;6388315;22;20286;-80
2022/01/19 06:55:29;;;;;;;19.42;13.27;;;5.40;1.00;;;;;;6393467;22;20197;-80
2022/01/19 06:58:13;;;;;;;19.08;14.00;;;5.40;1.00;;;;;;6395059;22;20533;-78
2022/01/19 07:00:45;;;;;;;19.40;13.90;;;5.40;1.00;;;;;;6391224;22;20198;-80
2022/01/19 07:03:15;;;;;;;15.77;13.30;;;5.40;1.00;;;;;;6390517;22;20170;-79
2022/01/19 07:05:42;;;;;;;19.90;13.77;;;5.40;1.00;;;;;;6391541;22;20255;-78
2022/01/19 07:08:15;;;;;;;16.13;11.90;;;5.30;1.00;;;;;;6392774;22;20224;-80
2022/01/19 07:10:47;;;;;;;19.42;13.68;;;5.20;1.00;;;;;;6393878;22;20170;-78
2022/01/19 07:13:17;;;;;;;17.33;12.50;;;5.20;1.00;;;;;;6393844;22;20193;-80
2022/01/19 07:15:45;;;;;;;17.73;12.18;;;5.20;1.00;;;;;;6393673;22;20174;-80
2022/01/19 07:18:12;;;;;;;15.38;12.23;;;5.10;1.00;;;;;;6395748;22;20182;-80
2022/01/19 07:20:40;;;;;;;23.13;14.80;;;5.10;1.00;;;;;;6390260;22;20178;-81
2022/01/19 07:23:09;;;;;;;18.08;11.65;;;5.10;1.00;;;;;;6393096;22;20221;-79
2022/01/19 07:25:36;;;;;;;20.65;14.98;;;5.10;1.00;;;;;;6396480;22;21408;-79
2022/01/19 07:28:10;;;;;;;17.55;12.48;;;5.10;1.00;;;;;;6385628;22;20195;-80
2022/01/19 07:30:41;;;;;;;21.63;13.15;;;5.20;1.00;;;;;;6360952;22;20202;-80
2022/01/19 07:33:12;;;;;;;16.50;14.20;;;5.20;1.00;;;;;;6389159;22;20246;-80
2022/01/19 07:35:40;;;;;;;17.48;11.57;;;5.20;1.00;;;;;;6389482;22;20247;-80
2022/01/19 07:38:09;;;;;;;17.02;12.48;;;5.20;1.00;;;;;;6361792;22;20195;-82
2022/01/19 07:40:37;;;;;;;15.70;10.65;;;5.20;1.00;;;;;;6387446;22;20194;-82
2022/01/19 07:43:04;;;;;;;16.65;10.60;;;5.10;1.00;;;;;;6383277;22;20198;-81
2022/01/19 07:45:33;;;;;;;17.10;11.98;;;5.10;1.00;;;;;;6383286;22;20410;-81
2022/01/19 07:48:01;;;;;;;19.90;11.45;;;5.10;1.00;;;;;;6384469;22;20205;-81
2022/01/19 07:50:29;;;;;;;21.40;12.85;;;5.10;1.00;;;;;;6354685;22;20194;-81
2022/01/19 07:52:57;;;;;;;17.98;11.10;;;5.20;1.00;;;;;;6381431;22;20285;-82
2022/01/19 07:55:24;;;;;;;18.27;11.68;;;5.20;1.00;;;;;;6373402;22;20257;-83
2022/01/19 07:57:52;;;;;;;15.55;10.57;;;5.20;1.00;;;;;;6374307;22;20201;-81
2022/01/19 08:00:23;;;;;;;16.52;12.38;;;5.30;1.00;;;;;;6368946;22;20230;-82
2022/01/19 08:02:51;;;;;;;13.50;10.23;;;5.40;1.00;;;;;;6340549;22;20202;-81
2022/01/19 08:05:21;;;;;;;14.63;10.45;;;5.50;1.00;;;;;;6341906;22;20252;-82
2022/01/19 08:07:51;;;;;;;17.50;11.93;;;5.50;1.00;;;;;;6365792;22;20177;-82
2022/01/19 08:10:18;;;;;;;17.10;9.85;;;5.50;1.00;;;;;;6377217;22;20206;-82
2022/01/19 08:12:49;;;;;;;17.67;12.98;;;5.50;1.00;;;;;;6365900;22;20190;-81
2022/01/19 08:15:16;;;;;;;18.70;11.10;;;5.40;1.00;;;;;;6372442;22;20201;-81
2022/01/19 08:17:43;;;;;;;14.48;8.90;;;5.40;1.00;;;;;;6371289;22;20228;-81
2022/01/19 08:20:12;;;;;;;17.70;10.02;;;5.30;1.00;;;;;;6367940;22;20190;-82
2022/01/19 08:22:40;;;;;;;13.95;8.98;;;5.30;1.00;;;;;;6372526;22;20186;-82
2022/01/19 08:25:13;;;;;;;13.93;9.52;;;5.30;1.00;;;;;;6341845;22;20198;-82
2022/01/19 08:27:40;;;;;;;17.02;9.57;;;5.30;1.00;;;;;;6372000;22;20190;-81
2022/01/19 08:30:11;;;;;;;13.93;10.20;;;5.30;1.00;;;;;;6374028;22;20195;-81
2022/01/19 08:32:39;;;;;;;15.10;9.70;;;5.30;1.00;;;;;;6367044;22;20194;-83
2022/01/19 08:35:09;;;;;;;13.57;10.10;;;5.30;1.00;;;;;;6370774;22;20202;-81
2022/01/19 08:37:36;;;;;;;18.63;10.13;;;5.40;1.00;;;;;;6369025;22;20190;-81
2022/01/19 08:40:06;;;;;;;15.88;9.55;;;5.50;1.00;;;;;;6369959;22;20224;-81
2022/01/19 08:42:36;;;;;;;11.98;8.43;;;5.60;1.00;;;;;;6366835;22;20190;-82
2022/01/19 08:45:07;;;;;;;12.82;7.97;;;5.70;1.00;;;;;;6387853;22;20281;-82
2022/01/19 08:47:38;;;;;;;13.27;9.45;;;5.70;1.00;;;;;;6380118;22;20182;-82
2022/01/19 08:50:10;;;;;;;13.50;8.60;;;5.90;1.00;;;;;;6369426;22;20178;-80
2022/01/19 08:52:37;;;;;;;12.45;7.85;;;5.80;1.00;;;;;;6370424;22;20208;-81
2022/01/19 08:55:11;;;;;;;11.07;8.68;;;5.80;1.00;;;;;;6370622;22;20284;-81
2022/01/19 08:57:38;;;;;;;12.93;10.20;;;6.10;1.00;;;;;;6369428;22;20210;-81
2022/01/19 09:00:08;;;;;;;18.00;8.73;;;6.20;1.00;;;;;;6366637;22;20279;-81
2022/01/19 09:02:36;;;;;;;17.60;10.88;;;6.20;1.00;;;;;;6334986;22;20250;-82
2022/01/19 09:05:04;;;;;;;13.10;9.35;;;6.10;1.00;;;;;;6366029;22;20201;-82
2022/01/19 09:07:31;;;;;;;14.45;10.75;;;6.00;1.00;;;;;;6367572;22;20193;-81
2022/01/19 09:10:01;;;;;;;14.77;11.35;;;6.00;1.00;;;;;;6368582;22;20198;-81
2022/01/19 09:16:03;;;;;;;14.48;10.98;;;6.00;1.00;;;;;;6360938;22;20224;-81
2022/01/19 09:21:47;;;;;;;14.95;9.90;;;6.10;1.00;;;;;;6371208;22;20197;-81
2022/01/19 09:24:29;;;;;;;14.55;9.52;;;6.10;1.00;;;;;;6408647;22;20192;-80
2022/01/19 09:27:33;;;;;;;14.02;10.95;;;6.10;1.00;;;;;;6393775;22;20236;-80
2022/01/19 09:30:00;;;;;;;15.05;11.85;;;6.10;1.00;;;;;;6353348;22;20193;-84
2022/01/19 09:32:30;;;;;;;12.15;9.75;;;6.20;1.00;;;;;;6359135;22;20275;-80
2022/01/19 09:35:22;;;;;;;15.02;11.60;;;6.10;1.00;;;;;;6360165;22;20193;-79
2022/01/19 09:37:50;;;;;;;13.13;10.00;;;6.20;1.00;;;;;;6396468;22;20186;-79
2022/01/19 09:40:22;;;;;;;14.25;10.52;;;6.30;1.00;;;;;;6395782;22;20960;-79
2022/01/19 09:42:50;;;;;;;11.35;9.50;;;6.40;1.00;;;;;;6390043;22;20237;-80
2022/01/19 09:45:22;;;;;;;12.85;10.25;;;6.40;1.00;;;;;;6371476;22;20185;-80
2022/01/19 09:47:50;;;;;;;17.80;11.60;;;6.70;1.00;;;;;;6399742;22;20174;-80
2022/01/19 09:50:19;;;;;;;15.65;11.23;;;7.10;1.00;;;;;;6401880;22;20193;-81
2022/01/19 09:52:46;;;;;;;12.80;11.27;;;7.40;1.00;;;;;;6400860;22;20200;-81
2022/01/19 09:55:15;;;;;;;14.05;12.32;;;7.30;1.00;;;;;;6399861;22;20683;-81
2022/01/19 09:57:44;;;;;;;14.02;10.70;;;7.30;1.00;;;;;;6399182;22;20193;-81
2022/01/19 10:00:11;;;;;;;13.55;11.15;;;7.30;1.00;;;;;;6400397;22;20232;-80
2022/01/19 10:02:42;;;;;;;11.32;10.20;;;7.20;1.00;;;;;;6401999;22;20186;-79
2022/01/19 10:05:10;;;;;;;13.65;10.75;;;7.20;1.00;;;;;;6394317;22;20201;-80
2022/01/19 10:07:41;;;;;;;14.93;11.27;;;7.30;1.00;;;;;;6367877;22;20296;-80
2022/01/19 10:10:09;;;;;;;12.00;10.57;;;7.40;1.00;;;;;;6397457;22;20275;-80
2022/01/19 10:18:26;;;;;;;12.00;10.57;;;7.30;1.00;;;;;;6300585;22;20241;-81
2022/01/19 10:21:06;;;;;;;17.67;12.45;;;7.30;1.00;;;;;;6359558;22;20178;-80
2022/01/19 10:23:38;;;;;;;16.50;11.45;;;7.40;1.00;;;;;;6381214;22;20851;-81
2022/01/19 10:26:08;;;;;;;15.20;11.82;;;7.20;1.00;;;;;;6366358;22;20568;-81
2022/01/19 10:29:00;;;;;;;15.20;13.30;;;7.10;1.00;;;;;;6339554;22;20190;-81
2022/01/19 10:31:28;;;;;;;14.65;12.80;;;7.20;1.00;;;;;;6368233;22;20261;-81
2022/01/19 10:34:12;;;;;;;14.32;11.18;;;7.20;1.00;;;;;;6363676;22;20193;-82
2022/01/19 10:36:44;;;;;;;12.65;10.70;;;7.00;1.00;;;;;;6369697;22;20186;-81
2022/01/19 10:39:13;;;;;;;16.20;13.30;;;6.70;1.00;;;;;;6367620;22;20186;-81
2022/01/19 10:41:58;;;;;;;15.65;10.90;;;6.40;1.00;;;;;;6366938;22;20201;-82
2022/01/19 10:44:31;;;;;;;14.07;12.25;;;6.10;1.00;;;;;;6336651;22;20190;-82
2022/01/19 10:46:58;;;;;;;12.20;10.93;;;6.00;1.00;;;;;;6368906;22;21400;-83
2022/01/19 10:49:27;;;;;;;20.38;14.00;;;6.00;1.00;;;;;;6365590;22;20217;-82
2022/01/19 10:51:58;;;;;;;15.50;12.93;;;5.90;1.00;;;;;;6368331;22;20223;-82
2022/01/19 10:54:30;;;;;;;13.95;12.45;;;5.90;1.00;;;;;;6372146;22;20190;-81
2022/01/19 10:56:58;;;;;;;13.93;12.20;;;5.90;1.00;;;;;;6375393;22;20174;-81
2022/01/19 10:59:37;;;;;;;14.63;13.13;;;5.80;1.00;;;;;;6373374;22;20217;-80
2022/01/19 11:02:05;;;;;;;17.10;13.35;;;5.60;1.00;;;;;;6341821;22;20198;-81
2022/01/19 11:04:34;;;;;;;15.20;13.38;;;5.60;1.00;;;;;;6354751;22;20190;-81
2022/01/19 11:07:04;;;;;;;19.60;14.88;;;5.50;1.00;;;;;;6390886;22;20196;-80
2022/01/19 11:09:34;;;;;;;14.90;13.30;;;5.40;1.00;;;;;;6363609;22;20174;-80
2022/01/19 11:15:25;;;;;;;14.13;12.63;;;5.30;1.00;;;;;;6357188;22;20206;-78
2022/01/19 11:18:25;;;;;;;14.43;12.70;;;5.30;1.00;;;;;;6350308;22;20194;-80
2022/01/19 11:21:26;;;;;;;15.52;13.30;;;5.40;1.00;;;;;;6370000;22;20287;-81
2022/01/19 11:24:19;;;;;;;15.43;13.82;;;5.30;1.00;;;;;;6364445;22;20223;-80
2022/01/19 11:26:55;;;;;;;15.40;13.70;;;5.20;1.00;;;;;;6340143;22;20725;-80
2022/01/19 11:29:38;;;;;;;17.40;14.75;;;5.20;1.00;;;;;;6362322;22;20179;-80
2022/01/19 11:32:18;;;;;;;15.77;13.95;;;5.30;1.00;;;;;;6337227;22;20194;-81
2022/01/19 11:35:27;;;;;;;18.98;14.80;;;5.00;1.00;;;;;;6332188;22;20287;-80
2022/01/19 11:38:14;;;;;;;18.27;14.80;;;4.70;1.00;;;;;;6364307;22;20194;-80
2022/01/19 11:40:48;;;;;;;16.73;14.25;;;4.50;1.00;;;;;;6332651;22;20231;-80
2022/01/19 11:43:29;;;;;;;19.95;15.13;;;4.30;1.00;;;;;;6371449;22;20193;-81
2022/01/19 11:46:14;;;;;;;20.73;16.58;;;4.40;1.00;;;;;;6366824;22;20292;-81
2022/01/19 11:48:58;;;;;;;;;;;;;;;;;;;;;
2022/01/19 11:51:30;;;;;;;18.92;16.88;;;4.50;1.00;;;;;;6369631;22;20194;-79
2022/01/19 11:54:11;;;;;;;18.70;15.52;;;4.50;1.00;;;;;;6375635;22;20183;-81
2022/01/19 11:57:16;;;;;;;20.88;15.60;;;4.50;1.00;;;;;;6348573;22;20185;-80
2022/01/19 12:00:12;;;;;;;18.70;15.80;;;4.50;1.00;;;;;;6370471;22;20258;-79
2022/01/19 12:02:44;;;;;;;20.00;14.70;;;4.40;1.00;;;;;;6370678;22;20244;-81
2022/01/19 12:05:36;;;;;;;17.67;15.55;;;4.30;1.00;;;;;;6371313;22;20200;-80
2022/01/19 12:08:27;;;;;;;18.90;16.35;;;4.20;1.00;;;;;;6346161;22;20242;-82
2022/01/19 12:10:58;;;;;;;18.13;16.15;;;4.00;1.00;;;;;;6342312;22;20191;-82
2022/01/19 12:13:43;;;;;;;20.25;16.63;;;4.00;1.00;;;;;;6372706;22;20412;-83
2022/01/19 12:16:28;;;;;;;18.52;16.33;;;4.10;1.00;;;;;;6348104;22;20202;-81
2022/01/19 12:18:58;;;;;;;21.35;18.10;;;4.10;1.00;;;;;;6375631;22;20256;-82
2022/01/19 12:21:45;;;;;;;22.45;18.42;;;4.00;1.00;;;;;;6343294;22;20208;-80
2022/01/19 12:24:26;;;;;;;22.02;18.33;;;4.10;1.00;;;;;;6375127;22;20182;-81
2022/01/19 12:27:03;;;;;;;21.65;17.83;;;4.20;1.00;;;;;;6345506;22;20212;-81
2022/01/19 12:29:58;;;;;;;25.42;17.92;;;4.10;1.00;;;;;;6373308;22;20192;-80
2022/01/19 12:32:48;;;;;;;20.13;16.25;;;4.10;1.00;;;;;;6371433;22;20194;-80
2022/01/19 12:35:41;;;;;;;18.58;15.75;;;4.10;1.00;;;;;;6338713;22;20213;-81
2022/01/19 12:38:19;;;;;;;17.95;15.40;;;4.10;1.00;;;;;;6346175;22;20190;-80
2022/01/19 12:40:57;;;;;;;23.60;18.08;;;4.10;1.00;;;;;;6347047;22;20182;-80
2022/01/19 12:43:38;;;;;;;21.67;17.10;;;4.00;1.00;;;;;;6372111;22;20178;-80
2022/01/19 12:46:13;;;;;;;19.83;17.52;;;4.00;1.00;;;;;;6368757;22;20198;-81
2022/01/19 12:48:47;;;;;;;25.25;19.98;;;4.00;1.00;;;;;;6340350;22;20264;-79
2022/01/19 12:51:46;;;;;;;20.80;16.35;;;4.00;1.00;;;;;;6366168;22;20231;-78
2022/01/19 12:54:16;;;;;;;19.40;16.40;;;4.00;1.00;;;;;;6343450;22;20186;-80
2022/01/19 12:57:01;;;;;;;18.55;15.25;;;4.00;1.00;;;;;;6367503;22;20281;-79
2022/01/19 12:59:29;;;;;;;17.48;14.77;;;4.00;1.00;;;;;;6342506;22;20271;-79
2022/01/19 13:05:05;;;;;;;19.02;14.32;;;4.10;1.00;;;;;;6335061;22;20186;-83
2022/01/19 13:07:35;;;;;;;17.90;14.85;;;4.10;1.00;;;;;;6368350;22;20182;-84
2022/01/19 13:10:12;;;;;;;18.95;14.43;;;4.20;1.00;;;;;;6368291;22;20190;-83
2022/01/19 13:12:48;;;;;;;21.33;17.85;;;4.30;1.00;;;;;;6358574;22;20194;-80
2022/01/19 13:15:15;;;;;;;20.38;18.08;;;4.30;1.00;;;;;;6393073;22;20181;-80
2022/01/19 13:17:44;;;;;;;22.65;20.25;;;4.30;1.00;;;;;;6353533;22;20194;-80
2022/01/19 13:20:16;;;;;;;22.42;18.90;;;4.30;1.00;;;;;;6341184;22;20186;-80
2022/01/19 13:22:49;;;;;;;28.70;17.05;;;4.20;1.00;;;;;;6364232;22;20221;-81
2022/01/19 13:25:19;;;;;;;23.23;20.42;;;4.20;1.00;;;;;;6373498;22;20240;-81
2022/01/19 13:27:47;;;;;;;22.27;19.98;;;4.20;1.00;;;;;;6340657;22;20195;-78
2022/01/19 13:30:15;;;;;;;25.17;20.23;;;4.20;1.00;;;;;;6367015;22;20195;-80
2022/01/19 13:32:43;;;;;;;18.77;16.77;;;4.10;1.00;;;;;;6372590;22;20357;-80
2022/01/19 13:35:12;;;;;;;22.08;19.13;;;4.10;1.00;;;;;;6353756;22;20209;-80
2022/01/19 13:37:42;;;;;;;21.05;17.75;;;4.10;1.00;;;;;;6341817;22;20186;-81
2022/01/19 13:40:12;;;;;;;21.02;18.77;;;4.10;1.00;;;;;;6369320;22;20190;-79
2022/01/19 13:42:48;;;;;;;20.38;17.08;;;3.90;1.00;;;;;;6343763;22;20205;-82
2022/01/19 13:45:28;;;;;;;20.55;17.60;;;4.00;1.00;;;;;;6368436;22;20178;-82
2022/01/19 13:48:08;;;;;;;21.08;18.63;;;3.90;1.00;;;;;;6337483;22;20204;-80
2022/01/19 13:50:39;;;;;;;20.20;18.08;;;3.90;1.00;;;;;;6336772;22;20200;-80
2022/01/19 13:53:06;;;;;;;23.25;18.83;;;4.00;1.00;;;;;;6367261;22;20188;-79
2022/01/19 13:55:34;;;;;;;27.48;20.30;;;4.00;1.00;;;;;;6365694;22;20281;-81
2022/01/19 13:58:10;;;;;;;25.27;21.33;;;4.00;1.00;;;;;;6365326;22;20194;-80
2022/01/19 14:00:39;;;;;;;25.85;20.90;;;4.00;1.00;;;;;;6337642;22;20648;-80
2022/01/19 14:03:11;;;;;;;28.30;21.90;;;4.00;1.00;;;;;;6364895;22;20247;-81
2022/01/19 14:05:43;;;;;;;25.35;22.15;;;3.90;1.00;;;;;;6338388;22;20283;-80
2022/01/19 14:08:26;;;;;;;21.92;19.58;;;4.00;1.00;;;;;;6367282;22;20189;-80
2022/01/19 14:10:54;;;;;;;22.17;19.50;;;4.00;1.00;;;;;;6337844;22;20293;-79
2022/01/19 14:13:29;;;;;;;20.23;18.05;;;3.90;1.00;;;;;;6339669;22;20263;-79
2022/01/19 14:16:26;;;;;;;20.10;17.95;;;4.00;1.00;;;;;;6342796;22;20280;-82
2022/01/19 14:19:28;;;;;;;20.63;18.42;;;3.90;1.00;;;;;;6367947;22;20190;-80
2022/01/19 14:22:28;;;;;;;26.60;20.88;;;3.90;1.00;;;;;;6268783;22;20208;-80
2022/01/19 14:25:31;;;;;;;27.30;22.42;;;4.00;1.00;;;;;;6365854;22;21159;-80
2022/01/19 14:28:44;;;;;;;29.67;24.83;;;4.00;1.00;;;;;;6361194;22;20200;-80
2022/01/19 14:42:16;;;;;;;22.00;18.17;;;4.10;1.00;;;;;;6338364;22;20200;-80
2022/01/19 14:45:01;;;;;;;24.05;19.55;;;4.20;1.00;;;;;;6363672;22;20259;-80
2022/01/19 14:47:54;;;;;;;23.38;20.15;;;4.20;1.00;;;;;;6365176;22;20178;-82
2022/01/19 14:50:35;;;;;;;23.15;20.85;;;4.30;1.00;;;;;;6359784;22;20495;-80
2022/01/19 14:53:16;;;;;;;24.27;21.70;;;4.30;1.00;;;;;;6368790;22;20221;-79
2022/01/19 14:56:25;;;;;;;27.83;21.45;;;4.30;1.00;;;;;;6366236;22;20271;-79
2022/01/19 15:02:20;;;;;;;22.52;20.00;;;4.20;1.00;;;;;;6368426;22;20198;-81
2022/01/19 15:05:13;;;;;;;24.30;21.70;;;4.30;1.00;;;;;;6389760;22;20193;-80
2022/01/19 15:11:04;;;;;;;21.13;18.08;;;4.40;1.00;;;;;;6345835;22;20237;-78
2022/01/19 15:13:35;;;;;;;21.30;17.80;;;4.40;1.00;;;;;;6400675;22;20188;-79
2022/01/19 15:16:06;;;;;;;19.60;17.45;;;4.30;1.00;;;;;;6392312;22;20210;-79
2022/01/19 15:18:36;;;;;;;23.15;18.75;;;4.30;1.00;;;;;;6368998;22;20186;-81
2022/01/19 15:21:05;;;;;;;17.85;15.95;;;4.40;1.00;;;;;;6369907;22;20234;-81
2022/01/19 15:23:44;;;;;;;17.98;16.15;;;4.40;1.00;;;;;;6369768;22;20193;-82
2022/01/19 15:26:30;;;;;;;16.70;15.00;;;4.40;1.00;;;;;;6337214;22;20244;-82
2022/01/19 15:29:13;;;;;;;17.60;15.75;;;4.40;1.00;;;;;;6371297;22;20251;-81
2022/01/19 15:31:44;;;;;;;16.20;13.82;;;4.40;1.00;;;;;;6370772;22;20193;-81
2022/01/19 15:34:28;;;;;;;17.00;14.90;;;4.40;1.00;;;;;;6337194;22;20178;-82
2022/01/19 15:37:06;;;;;;;16.42;14.55;;;4.40;1.00;;;;;;6367812;22;20198;-81
2022/01/19 15:39:52;;;;;;;14.55;13.02;;;4.50;1.00;;;;;;6341037;22;20564;-83
2022/01/19 15:42:29;;;;;;;17.38;14.85;;;4.50;1.00;;;;;;6366451;22;20540;-82
2022/01/19 15:51:58;;;;;;;13.45;12.15;;;4.50;1.00;;;;;;6250136;22;20197;-78
2022/01/19 15:58:42;;;;;;;13.48;12.15;;;4.60;1.00;;;;;;6171786;23;20213;-79
2022/01/19 16:03:55;;;;;;;15.45;12.05;;;4.60;1.00;;;;;;6387377;22;20207;-80
2022/01/19 16:06:27;;;;;;;13.48;12.07;;;4.60;1.00;;;;;;6380254;22;20204;-81
2022/01/19 16:09:28;;;;;;;12.52;11.27;;;4.60;1.00;;;;;;6372123;22;20194;-82
2022/01/19 16:12:30;;;;;;;13.77;11.02;;;4.60;1.00;;;;;;6324743;22;20197;-81
2022/01/19 16:21:52;;;;;;;14.07;11.25;;;4.60;1.00;;;;;;6373400;22;20202;-82
2022/01/19 16:28:03;;;;;;;13.20;10.90;;;4.70;1.00;;;;;;6372335;22;20193;-83
2022/01/19 16:30:45;;;;;;;13.15;11.85;;;4.80;1.00;;;;;;6373946;22;20216;-80
2022/01/19 16:33:34;;;;;;;14.02;12.63;;;4.70;1.00;;;;;;6369680;22;20198;-80
2022/01/19 16:36:46;;;;;;;;;;;;;;;;;;;;;
2022/01/19 16:39:25;;;;;;;14.73;12.85;;;4.70;1.00;;;;;;6367728;22;20198;-82
2022/01/19 16:42:11;;;;;;;13.65;12.15;;;4.70;1.00;;;;;;6369955;22;20209;-81
2022/01/19 16:51:02;;;;;;;14.77;11.77;;;4.70;1.00;;;;;;6367994;22;20517;-82
2022/01/19 16:54:01;;;;;;;9.90;9.00;;;4.70;1.00;;;;;;6383305;22;20186;-81
2022/01/19 16:57:33;;;;;;;;;;;;;;;;;;;;;
2022/01/19 17:00:29;;;;;;;11.25;9.75;;;4.70;1.00;;;;;;6385566;22;20194;-82
2022/01/19 17:03:01;;;;;;;11.70;9.07;;;4.70;1.00;;;;;;6384583;22;21100;-79
2022/01/19 17:05:28;;;;;;;12.75;10.02;;;4.70;1.00;;;;;;6388325;22;20225;-82
2022/01/19 17:07:56;;;;;;;11.52;9.68;;;4.70;1.00;;;;;;6410498;22;20190;-81
2022/01/19 17:10:29;;;;;;;10.45;8.27;;;4.70;1.00;;;;;;6375636;22;20182;-82
2022/01/19 17:15:42;;;;;;;11.40;10.15;;;4.80;1.00;;;;;;6388605;22;20197;-81
2022/01/19 17:18:14;;;;;;;10.20;9.18;;;4.80;1.00;;;;;;6366690;22;20273;-82
2022/01/19 17:20:41;;;;;;;10.63;9.43;;;4.80;1.00;;;;;;6363340;22;20643;-82
2022/01/19 17:23:08;;;;;;;11.88;10.63;;;4.80;1.00;;;;;;6374210;22;20190;-81
2022/01/19 17:25:42;;;;;;;13.52;11.93;;;4.80;1.00;;;;;;6375676;22;20192;-81
2022/01/19 17:28:10;;;;;;;10.35;9.38;;;4.80;1.00;;;;;;6376717;22;20186;-82
2022/01/19 17:30:40;;;;;;;11.88;10.25;;;4.80;1.00;;;;;;6372385;22;20256;-82
2022/01/19 17:33:08;;;;;;;13.32;10.45;;;4.80;1.00;;;;;;6371254;22;20206;-80
2022/01/19 17:35:37;;;;;;;13.82;11.85;;;4.80;1.00;;;;;;6374493;22;20174;-81
2022/01/19 17:38:08;;;;;;;15.32;10.95;;;4.80;1.00;;;;;;6366228;22;20190;-81
2022/01/19 17:40:50;;;;;;;11.32;10.13;;;4.80;1.00;;;;;;6367149;22;21511;-82
2022/01/19 17:43:50;;;;;;;15.40;13.40;;;4.80;1.00;;;;;;6378294;22;20380;-80
2022/01/19 17:46:37;;;;;;;12.13;10.05;;;4.80;1.00;;;;;;6367609;22;20189;-80
2022/01/19 17:49:21;;;;;;;12.57;10.30;;;4.80;1.00;;;;;;6359373;22;20198;-81
2022/01/19 17:52:01;;;;;;;11.90;10.80;;;4.90;1.00;;;;;;6365675;22;20186;-80
2022/01/19 17:54:28;;;;;;;11.35;10.20;;;4.80;1.00;;;;;;6367421;22;20178;-80
2022/01/19 17:56:55;;;;;;;11.88;10.30;;;4.90;1.00;;;;;;6367643;22;20206;-80
2022/01/19 17:59:24;;;;;;;15.88;11.88;;;4.80;1.00;;;;;;6370998;22;20185;-79
2022/01/19 18:01:51;;;;;;;12.77;11.57;;;4.80;1.00;;;;;;6374262;22;21351;-82
2022/01/19 18:04:18;;;;;;;10.82;9.35;;;4.80;1.00;;;;;;6368456;22;20192;-80
2022/01/19 18:06:46;;;;;;;11.65;10.50;;;4.80;1.00;;;;;;6367944;22;20654;-80
2022/01/19 18:09:15;;;;;;;10.98;9.93;;;4.80;1.00;;;;;;6371833;22;20199;-80
2022/01/19 18:11:43;;;;;;;11.65;10.40;;;4.80;1.00;;;;;;6367461;22;20193;-81
2022/01/19 18:14:10;;;;;;;11.50;10.27;;;4.80;1.00;;;;;;6363230;22;20210;-81
2022/01/19 18:16:38;;;;;;;11.70;10.60;;;4.80;1.00;;;;;;6369496;22;20281;-79
2022/01/19 18:19:05;;;;;;;11.98;10.80;;;4.90;1.00;;;;;;6371663;22;20194;-82
2022/01/19 18:21:32;;;;;;;12.10;10.40;;;4.80;1.00;;;;;;6385808;22;20182;-79
2022/01/19 18:23:59;;;;;;;11.43;10.32;;;4.80;1.00;;;;;;6375299;22;20377;-81
2022/01/19 18:26:28;;;;;;;12.82;11.40;;;4.70;1.00;;;;;;6369623;22;20725;-81
2022/01/19 18:28:57;;;;;;;12.27;10.45;;;4.70;1.00;;;;;;6368630;22;20218;-80
2022/01/19 18:31:26;;;;;;;11.93;10.82;;;4.70;1.00;;;;;;6396881;22;20208;-81
2022/01/19 18:33:53;;;;;;;15.35;11.48;;;4.70;1.00;;;;;;6369151;22;20186;-80
2022/01/19 18:36:20;;;;;;;11.77;9.80;;;4.70;1.00;;;;;;6374133;22;20294;-79
2022/01/19 18:38:49;;;;;;;11.43;10.32;;;4.70;1.00;;;;;;6373557;22;20194;-80
2022/01/19 18:41:18;;;;;;;12.45;10.15;;;4.70;1.00;;;;;;6370645;22;20194;-79
2022/01/19 18:43:51;;;;;;;11.68;10.50;;;4.60;1.00;;;;;;6371506;22;20186;-80
2022/01/19 18:46:18;;;;;;;10.93;9.88;;;4.60;1.00;;;;;;6367371;22;20262;-79
2022/01/19 18:48:48;;;;;;;11.82;10.40;;;4.60;1.00;;;;;;6368885;22;20325;-79
2022/01/19 18:51:17;;;;;;;12.40;11.15;;;4.60;1.00;;;;;;6368911;22;20186;-80
2022/01/19 18:53:45;;;;;;;14.50;10.45;;;4.60;1.00;;;;;;6369638;22;21196;-79
2022/01/19 18:56:14;;;;;;;14.27;11.57;;;4.60;1.00;;;;;;6395925;22;20190;-80
2022/01/19 18:58:42;;;;;;;11.93;10.73;;;4.60;1.00;;;;;;6367488;22;20194;-80
2022/01/19 19:01:10;;;;;;;12.10;10.77;;;4.60;1.00;;;;;;6363047;22;20352;-79
2022/01/19 19:03:39;;;;;;;13.85;10.43;;;4.60;1.00;;;;;;6391673;22;20208;-80
2022/01/19 19:06:06;;;;;;;14.38;12.05;;;4.60;1.00;;;;;;6363312;22;20216;-81
2022/01/19 19:08:33;;;;;;;11.65;10.45;;;4.60;1.00;;;;;;6391905;22;20216;-80
2022/01/19 19:11:19;;;;;;;13.13;11.15;;;4.60;1.00;;;;;;6366577;22;20187;-80
2022/01/19 19:13:46;;;;;;;13.45;12.00;;;4.70;1.00;;;;;;6366400;22;20213;-80
2022/01/19 19:16:15;;;;;;;11.77;10.48;;;4.60;1.00;;;;;;6371644;22;20251;-82
2022/01/19 19:18:43;;;;;;;15.88;11.77;;;4.60;1.00;;;;;;6365544;22;20195;-81
2022/01/19 19:24:53;;;;;;;17.02;12.02;;;4.60;1.00;;;;;;6370345;22;20216;-80
2022/01/19 19:27:21;;;;;;;13.35;11.98;;;4.60;1.00;;;;;;6370058;22;20213;-80
2022/01/19 19:30:11;;;;;;;14.02;12.48;;;4.60;1.00;;;;;;6374843;22;20189;-79
2022/01/19 19:32:48;;;;;;;15.02;12.45;;;4.60;1.00;;;;;;6379342;22;20251;-79